createdAt,value
2022-08-07T00:02:41.265Z,100944.48
2022-08-07T00:07:19.449Z,100948.23
2022-08-07T00:12:21.916Z,100951.77
2022-08-07T00:17:24.389Z,100955.21
2022-08-07T00:22:34.889Z,100954.61
2022-08-07T00:27:52.358Z,100958.48
2022-08-07T00:33:00.271Z,100960.30
2022-08-07T00:38:02.730Z,100957.72
2022-08-07T00:43:09.783Z,100956.38
2022-08-07T00:48:13.292Z,100955.86
2022-08-07T00:53:16.517Z,100958.56
2022-08-07T00:58:21.194Z,100952.71
2022-08-07T01:03:54.817Z,100952.63
2022-08-07T01:08:53.471Z,100953.10
2022-08-07T01:13:58.486Z,100952.44
2022-08-07T01:19:00.895Z,100955.21
2022-08-07T01:24:07.713Z,100952.01
2022-08-07T01:29:13.553Z,100943.55
2022-08-07T01:34:18.882Z,100941.73
2022-08-07T01:39:22.064Z,100944.21
2022-08-07T01:44:24.829Z,100943.65
2022-08-07T01:49:27.477Z,100944.64
2022-08-07T01:54:39.465Z,100945.83
2022-08-07T01:59:50.369Z,100948.58
2022-08-07T02:04:59.144Z,100943.33
2022-08-07T02:10:02.861Z,100946.27
2022-08-07T02:15:07.134Z,100944.17
2022-08-07T02:20:17.271Z,100944.73
2022-08-07T02:26:10.658Z,100945.10
2022-08-07T02:30:48.383Z,100945.31
2022-08-07T02:36:29.322Z,100944.17
2022-08-07T02:41:21.774Z,100946.34
2022-08-07T02:46:26.231Z,100945.82
2022-08-07T02:51:42.482Z,100949.63
2022-08-07T02:56:54.859Z,100951.73
2022-08-07T03:02:02.271Z,100950.00
2022-08-07T03:07:07.391Z,100948.20
2022-08-07T03:12:22.473Z,100946.61
2022-08-07T03:17:52.983Z,100945.22
2022-08-07T03:22:58.612Z,100944.26
2022-08-07T03:28:09.690Z,100942.70
2022-08-07T03:33:25.466Z,100943.92
2022-08-07T03:38:43.732Z,100943.35
2022-08-07T03:43:57.469Z,100942.87
2022-08-07T03:49:02.535Z,100946.50
2022-08-07T03:54:36.154Z,100941.36
2022-08-07T03:59:28.696Z,100946.90
2022-08-07T04:04:32.756Z,100944.27
2022-08-07T04:09:45.419Z,100948.31
2022-08-07T04:14:53.453Z,100950.59
2022-08-07T04:19:58.841Z,100955.92
2022-08-07T04:25:02.078Z,100955.73
2022-08-07T04:30:11.820Z,100961.23
2022-08-07T04:35:23.776Z,100963.09
2022-08-07T04:40:26.624Z,100964.95
2022-08-07T04:46:01.412Z,100968.77
2022-08-07T04:51:18.318Z,100978.31
2022-08-07T04:58:12.232Z,100979.68
2022-08-07T05:02:26.840Z,100980.42
2022-08-07T05:08:06.095Z,100984.52
2022-08-07T05:14:53.108Z,100986.29
2022-08-07T05:18:47.217Z,100992.14
2022-08-07T05:23:57.320Z,100997.35
2022-08-07T05:29:04.407Z,100999.89
2022-08-07T05:34:12.180Z,101000.36
2022-08-07T05:40:18.016Z,100994.42
2022-08-07T05:44:46.635Z,100993.95
2022-08-07T05:50:03.625Z,100996.44
2022-08-07T05:55:10.809Z,100990.94
2022-08-07T06:00:16.107Z,100994.70
2022-08-07T06:05:28.197Z,100995.89
2022-08-07T06:10:31.846Z,100996.93
2022-08-07T06:15:42.567Z,100996.95
2022-08-07T06:20:50.436Z,100999.66
2022-08-07T06:26:13.042Z,100994.46
2022-08-07T06:31:15.460Z,100994.58
2022-08-07T06:36:34.795Z,100999.77
2022-08-07T06:41:59.241Z,101001.38
2022-08-07T06:47:10.369Z,101000.91
2022-08-07T06:52:31.442Z,101005.24
2022-08-07T06:57:43.549Z,101015.48
2022-08-07T07:02:57.973Z,101019.80
2022-08-07T07:08:07.099Z,101022.05
2022-08-07T07:13:56.498Z,101025.58
2022-08-07T07:18:48.010Z,101027.76
2022-08-07T07:24:09.518Z,101031.09
2022-08-07T07:29:39.147Z,101029.27
2022-08-07T07:34:48.863Z,101029.81
2022-08-07T07:39:56.302Z,101036.77
2022-08-07T07:45:01.480Z,101032.55
2022-08-07T07:50:32.961Z,101033.92
2022-08-07T07:55:37.705Z,101033.32
2022-08-07T08:00:53.799Z,101027.73
2022-08-07T08:05:56.650Z,101025.79
2022-08-07T08:11:00.362Z,101029.17
2022-08-07T08:16:05.345Z,101030.83
2022-08-07T08:21:55.914Z,101030.33
2022-08-07T08:27:11.140Z,101034.52
2022-08-07T08:32:25.120Z,101040.85
2022-08-07T08:38:00.902Z,101043.29
2022-08-07T08:42:56.067Z,101046.50
2022-08-07T08:48:14.515Z,101045.06
2022-08-07T08:53:42.912Z,101048.23
2022-08-07T08:59:13.956Z,101044.88
2022-08-07T09:04:36.624Z,101042.99
2022-08-07T09:09:56.521Z,101044.10
2022-08-07T09:16:22.034Z,101033.10
2022-08-07T09:20:43.637Z,101027.42
2022-08-07T09:26:17.178Z,101021.48
2022-08-07T09:31:48.741Z,101030.82
2022-08-07T09:37:04.514Z,101029.09
2022-08-07T09:42:38.979Z,101024.64
2022-08-07T09:48:04.019Z,101016.24
2022-08-07T09:53:12.858Z,101012.77
2022-08-07T09:58:32.871Z,101007.36
2022-08-07T10:04:05.848Z,101003.36
2022-08-07T10:10:00.074Z,101003.35
2022-08-07T10:15:08.307Z,100998.14
2022-08-07T10:20:50.476Z,100995.70
2022-08-07T10:26:24.654Z,100990.60
2022-08-07T10:31:45.130Z,100986.87
2022-08-07T10:37:19.807Z,100982.09
2022-08-07T10:42:52.177Z,100974.38
2022-08-07T10:48:13.394Z,100972.15
2022-08-07T10:53:50.553Z,100962.45
2022-08-07T10:59:06.761Z,100952.73
2022-08-07T11:04:31.899Z,100951.61
2022-08-07T11:10:07.481Z,100945.13
2022-08-07T11:15:17.426Z,100942.94
2022-08-07T11:20:38.850Z,100940.59
2022-08-07T11:25:52.843Z,100933.62
2022-08-07T11:31:19.802Z,100934.57
2022-08-07T11:37:06.778Z,100932.05
2022-08-07T11:42:19.488Z,100930.45
2022-08-07T11:47:55.952Z,100933.37
2022-08-07T11:53:27.844Z,100926.30
2022-08-07T12:00:07.689Z,100931.67
2022-08-07T12:05:15.127Z,100932.13
2022-08-07T12:10:42.182Z,100933.92
2022-08-07T12:16:05.877Z,100917.15
2022-08-07T12:22:35.838Z,100916.63
2022-08-07T12:27:14.923Z,100915.12
2022-08-07T12:32:29.754Z,100909.73
2022-08-07T12:38:11.517Z,100912.53
2022-08-07T12:43:00.415Z,100917.75
2022-08-07T12:48:27.717Z,100914.77
2022-08-07T12:54:36.511Z,100912.49
2022-08-07T12:59:22.468Z,100910.62
2022-08-07T13:05:01.053Z,100904.83
2022-08-07T13:10:39.757Z,100904.02
2022-08-07T13:16:10.553Z,100898.04
2022-08-07T13:21:54.909Z,100893.89
2022-08-07T13:27:10.246Z,100890.90
2022-08-07T13:32:32.866Z,100886.03
2022-08-07T13:38:00.948Z,100893.73
2022-08-07T13:43:12.322Z,100890.24
2022-08-07T13:48:27.602Z,100882.45
2022-08-07T13:53:59.667Z,100881.33
2022-08-07T13:59:05.463Z,100879.61
2022-08-07T14:04:11.397Z,100874.23
2022-08-07T14:10:00.693Z,100874.88
2022-08-07T14:14:52.677Z,100871.89
2022-08-07T14:20:39.905Z,100871.89
2022-08-07T14:25:39.591Z,100868.33
2022-08-07T14:30:52.256Z,100868.81
2022-08-07T14:35:58.612Z,100862.39
2022-08-07T14:41:12.384Z,100860.73
2022-08-07T14:46:24.811Z,100860.67
2022-08-07T14:52:03.861Z,100854.02
2022-08-07T14:57:02.186Z,100848.29
2022-08-07T15:02:32.945Z,100848.60
2022-08-07T15:07:47.228Z,100842.84
2022-08-07T15:12:54.927Z,100842.71
2022-08-07T15:18:14.296Z,100841.94
2022-08-07T15:34:22.357Z,100835.82
2022-08-07T15:39:56.828Z,100828.77
2022-08-07T15:44:52.645Z,100830.14
2022-08-07T15:50:03.700Z,100835.41
2022-08-07T15:55:11.454Z,100826.58
2022-08-07T16:00:31.273Z,100835.45
2022-08-07T16:05:38.248Z,100836.81
2022-08-07T16:10:47.309Z,100825.45
2022-08-07T16:16:48.784Z,100820.92
2022-08-07T16:22:31.582Z,100824.97
2022-08-07T16:27:57.372Z,100820.06
2022-08-07T16:34:01.956Z,100819.50
2022-08-07T16:39:03.608Z,100820.27
2022-08-07T16:45:03.829Z,100811.70
2022-08-07T16:50:36.162Z,100811.24
2022-08-07T16:56:11.930Z,100809.65
2022-08-07T17:01:34.490Z,100809.64
2022-08-07T17:07:02.835Z,100805.23
2022-08-07T17:12:33.927Z,100803.41
2022-08-07T17:17:46.459Z,100811.02
2022-08-07T17:23:11.465Z,100809.55
2022-08-07T17:28:20.115Z,100810.52
2022-08-07T17:34:08.646Z,100810.92
2022-08-07T17:39:01.488Z,100812.45
2022-08-07T17:44:15.643Z,100815.46
2022-08-07T17:49:45.091Z,100819.98
2022-08-07T17:54:53.644Z,100821.58
2022-08-07T18:00:06.272Z,100818.79
2022-08-07T18:06:01.773Z,100828.23
2022-08-07T18:12:07.606Z,100828.05
2022-08-07T18:16:31.199Z,100829.06
2022-08-07T18:22:00.478Z,100827.86
2022-08-07T18:27:21.098Z,100831.48
2022-08-07T18:32:46.338Z,100836.90
2022-08-07T18:38:55.691Z,100842.35
2022-08-07T18:44:03.062Z,100850.41
2022-08-07T18:50:30.075Z,100855.97
2022-08-07T18:55:43.267Z,100866.61
2022-08-07T19:02:33.084Z,100874.54
2022-08-07T19:06:57.640Z,100870.82
2022-08-07T19:12:04.981Z,100871.00
2022-08-07T19:17:55.595Z,100873.92
2022-08-07T19:23:17.921Z,100878.29
2022-08-07T19:28:30.701Z,100880.59
2022-08-07T19:33:58.044Z,100883.41
2022-08-07T19:39:01.747Z,100882.87
2022-08-07T19:44:21.255Z,100887.51
2022-08-07T19:49:58.602Z,100885.91
2022-08-07T19:54:55.945Z,100896.73
2022-08-07T20:00:09.038Z,100899.20
2022-08-07T20:05:16.583Z,100900.37
2022-08-07T20:10:36.213Z,100909.65
2022-08-07T20:15:55.149Z,100908.27
2022-08-07T20:21:20.809Z,100910.92
2022-08-07T20:26:32.065Z,100910.77
2022-08-07T20:31:44.900Z,100914.13
2022-08-07T20:36:51.812Z,100924.56
2022-08-07T20:41:54.811Z,100926.43
2022-08-07T20:47:05.626Z,100924.70
2022-08-07T20:52:30.041Z,100928.36
2022-08-07T20:58:04.177Z,100927.75
2022-08-07T21:03:23.238Z,100923.57
2022-08-07T21:08:38.268Z,100923.70
2022-08-07T21:14:20.114Z,100924.85
2022-08-07T21:19:15.515Z,100928.63
2022-08-07T21:24:32.338Z,100929.83
2022-08-07T21:29:53.416Z,100932.65
2022-08-07T21:34:58.358Z,100936.33
2022-08-07T21:40:13.691Z,100934.13
2022-08-07T21:46:08.365Z,100935.96
2022-08-07T21:50:53.787Z,100938.79
2022-08-07T21:56:35.755Z,100935.74
2022-08-07T22:02:10.905Z,100939.23
2022-08-07T22:07:05.599Z,100940.34
2022-08-07T22:12:31.515Z,100932.75
2022-08-07T22:17:40.511Z,100930.81
2022-08-07T22:23:01.472Z,100930.70
2022-08-07T22:28:32.214Z,100925.27
2022-08-07T22:33:57.226Z,100923.28
2022-08-07T22:39:12.889Z,100921.17
2022-08-07T22:44:22.296Z,100916.93
2022-08-07T22:49:42.817Z,100908.95
2022-08-07T22:55:00.310Z,100910.52
2022-08-07T23:00:28.784Z,100909.73
2022-08-07T23:06:10.127Z,100904.92
2022-08-07T23:11:48.349Z,100900.45
2022-08-07T23:17:12.762Z,100901.81
2022-08-07T23:22:40.074Z,100903.06
2022-08-07T23:28:21.549Z,100900.02
2022-08-07T23:34:35.633Z,100904.70
2022-08-07T23:39:22.061Z,100905.41
2022-08-07T23:44:40.994Z,100901.90
2022-08-07T23:50:07.654Z,100897.72
2022-08-07T23:55:52.193Z,100901.98
